Time;durP1;ratioP1;P1;durP2;ratioP2;P2;SDS_P1;SDS_P2;PMS_P1;PMS_P2;Temp;Humidity;BMP_temperature;BMP_pressure;BME280_temperature;BME280_humidity;BME280_pressure;Samples;Min_cycle;Max_cycle;Signal;HPM_P1;HPM_P2
2023/02/08 00:01:54;;;;;;;29.80;15.10;;;;;;;-7.83;86.91;102339.51;105051;1265;71710;-75
2023/02/08 00:04:22;;;;;;;21.20;13.50;;;;;;;-7.82;86.77;102346.06;105225;1268;66962;-73
2023/02/08 00:06:54;;;;;;;24.30;13.50;;;;;;;-7.82;86.63;102346.95;105327;1267;72542;-73
2023/02/08 00:09:22;;;;;;;38.70;16.90;;;;;;;-7.82;86.46;102345.40;105060;1266;60186;-73
2023/02/08 00:11:50;;;;;;;26.20;13.80;;;;;;;-7.85;86.47;102343.23;105090;1266;61289;-73
2023/02/08 00:14:18;;;;;;;26.10;15.50;;;;;;;-7.84;86.41;102347.19;105583;1259;73273;-74
2023/02/08 00:16:46;;;;;;;25.70;16.60;;;;;;;-7.81;86.57;102350.73;105633;1259;69807;-72
2023/02/08 00:19:14;;;;;;;36.00;18.50;;;;;;;-7.74;86.57;102357.21;105778;1257;72474;-74
2023/02/08 00:21:43;;;;;;;30.40;15.40;;;;;;;-7.75;86.14;102360.91;105651;1257;60600;-73
2023/02/08 00:24:11;;;;;;;33.50;16.40;;;;;;;-7.72;86.22;102357.67;105634;1256;61051;-74
2023/02/08 00:26:39;;;;;;;30.30;18.90;;;;;;;-7.69;86.33;102356.82;105779;1260;72719;-73
2023/02/08 00:29:07;;;;;;;28.00;15.60;;;;;;;-7.63;85.95;102364.20;105735;1257;67985;-73
2023/02/08 00:31:36;;;;;;;25.80;15.70;;;;;;;-7.60;85.93;102371.38;105065;1256;1003358;-69
2023/02/08 00:34:04;;;;;;;30.20;15.40;;;;;;;-7.56;85.81;102367.52;104686;1256;1002935;-67
2023/02/08 00:36:32;;;;;;;29.20;15.60;;;;;;;-7.46;85.81;102373.73;105090;1256;60521;-69
2023/02/08 00:39:01;;;;;;;29.30;17.50;;;;;;;-7.50;84.87;102371.48;105317;1262;72505;-69
2023/02/08 00:41:30;;;;;;;17.10;11.10;;;;;;;-7.54;85.14;102370.56;105808;1260;68170;-70
2023/02/08 00:43:58;;;;;;;25.60;14.60;;;;;;;-7.55;84.78;102370.96;105488;1263;72230;-69
2023/02/08 00:46:27;;;;;;;25.60;16.90;;;;;;;-7.60;84.76;102374.51;105710;1256;61576;-72
2023/02/08 00:48:55;;;;;;;21.70;13.10;;;;;;;-7.59;85.02;102376.74;104933;1262;59627;-71
2023/02/08 00:51:23;;;;;;;24.70;13.90;;;;;;;-7.57;84.88;102375.08;105280;1262;72646;-70
2023/02/08 00:53:52;;;;;;;27.70;16.50;;;;;;;-7.61;84.75;102380.11;105862;1256;67269;-71
2023/02/08 00:56:20;;;;;;;28.70;15.80;;;;;;;-7.62;84.49;102384.00;105103;1260;73146;-70
2023/02/08 00:58:48;;;;;;;27.80;15.60;;;;;;;-7.63;84.81;102387.70;105790;1262;61188;-68
2023/02/08 01:01:18;;;;;;;25.90;14.60;;;;;;;-7.60;84.57;102388.30;105813;1256;60150;-69
2023/02/08 01:03:47;;;;;;;26.10;15.00;;;;;;;-7.64;84.48;102390.19;105383;1261;72140;-70
2023/02/08 01:06:18;;;;;;;26.70;14.70;;;;;;;-7.73;84.38;102391.32;105516;1256;67185;-73
2023/02/08 01:08:47;;;;;;;28.70;17.00;;;;;;;-7.80;84.60;102393.70;105514;1257;72450;-70
2023/02/08 01:11:21;;;;;;;24.20;14.40;;;;;;;-7.82;84.81;102396.23;105506;1256;60544;-71
2023/02/08 01:13:54;;;;;;;33.50;15.90;;;;;;;-7.86;84.81;102398.65;105774;1256;62145;-70
2023/02/08 01:16:25;;;;;;;30.90;15.30;;;;;;;-7.86;84.95;102405.96;105811;1256;72677;-74
2023/02/08 01:18:54;;;;;;;29.30;14.60;;;;;;;-7.86;84.82;102403.90;105808;1258;67859;-72
2023/02/08 01:21:24;;;;;;;24.20;14.30;;;;;;;-7.90;84.97;102411.90;105742;1256;72636;-70
2023/02/08 01:23:52;;;;;;;25.10;13.80;;;;;;;-7.92;85.02;102416.70;105717;1256;60105;-70
2023/02/08 01:26:21;;;;;;;31.40;14.30;;;;;;;-7.91;85.11;102423.08;105730;1262;59638;-69
2023/02/08 01:28:49;;;;;;;24.40;14.80;;;;;;;-7.93;85.09;102425.07;105757;1256;74239;-70
2023/02/08 01:31:20;;;;;;;23.20;14.10;;;;;;;-8.01;85.02;102427.13;105495;1257;68821;-69
2023/02/08 01:33:48;;;;;;;23.80;16.20;;;;;;;-8.04;85.35;102430.06;105440;1257;74434;-70
2023/02/08 01:36:17;;;;;;;27.50;14.90;;;;;;;-8.04;85.40;102432.84;105609;1256;59705;-69
2023/02/08 01:38:45;;;;;;;30.90;16.30;;;;;;;-8.06;85.37;102432.73;105205;1262;60680;-69
2023/02/08 01:41:25;;;;;;;21.90;13.30;;;;;;;-8.05;85.52;102440.88;105266;1259;73232;-72
2023/02/08 01:44:16;;;;;;;34.80;16.40;;;;;;;-7.97;85.58;102448.04;105347;1262;65689;-70
2023/02/08 01:46:50;;;;;;;27.30;16.70;;;;;;;-7.96;85.51;102451.67;105748;1256;71350;-73
2023/02/08 01:49:23;;;;;;;24.10;14.20;;;;;;;-7.98;85.31;102456.11;105855;1256;62531;-74
2023/02/08 01:51:59;;;;;;;22.90;14.30;;;;;;;-7.92;85.52;102460.92;105652;1257;62065;-68
2023/02/08 01:54:37;;;;;;;28.30;14.90;;;;;;;-7.90;85.31;102460.30;105438;1261;74033;-69
2023/02/08 01:57:06;;;;;;;26.70;14.40;;;;;;;-7.93;85.21;102458.67;105399;1256;67319;-67
2023/02/08 01:59:42;;;;;;;22.00;14.10;;;;;;;-7.97;85.14;102459.19;105403;1256;72494;-69
2023/02/08 02:02:12;;;;;;;26.50;16.00;;;;;;;-7.93;85.43;102458.67;105242;1261;60811;-69
2023/02/08 02:04:40;;;;;;;23.20;14.60;;;;;;;-7.87;85.28;102461.75;105233;1260;59981;-67
2023/02/08 02:07:09;;;;;;;20.80;13.30;;;;;;;-7.86;85.07;102458.73;105393;1261;74650;-70
2023/02/08 02:09:43;;;;;;;34.70;19.30;;;;;;;-7.89;84.91;102458.18;105396;1257;68920;-68
2023/02/08 02:12:14;;;;;;;29.40;13.80;;;;;;;-7.94;84.95;102460.80;105753;1262;72741;-69
2023/02/08 02:14:42;;;;;;;25.30;15.50;;;;;;;-8.02;84.72;102462.86;105493;1259;60784;-71
2023/02/08 02:17:12;;;;;;;24.10;15.60;;;;;;;-8.04;85.16;102464.16;105677;1257;60350;-71
2023/02/08 02:19:54;;;;;;;29.70;17.80;;;;;;;-8.03;85.06;102471.63;105723;1257;74453;-69
2023/02/08 02:22:49;;;;;;;21.60;14.40;;;;;;;-8.09;84.92;102474.31;105840;1257;67129;-70
2023/02/08 02:25:31;;;;;;;27.80;15.10;;;;;;;-8.19;84.97;102479.56;105634;1259;71314;-69
2023/02/08 02:28:27;;;;;;;24.70;14.50;;;;;;;-8.23;85.08;102475.40;105631;1260;60707;-71
2023/02/08 02:31:10;;;;;;;22.60;13.30;;;;;;;-8.23;85.40;102477.31;105631;1260;59739;-72
2023/02/08 02:34:00;;;;;;;23.90;12.90;;;;;;;-8.25;85.37;102476.88;105610;1260;73506;-69
2023/02/08 02:36:37;;;;;;;22.90;12.80;;;;;;;-8.31;85.22;102482.88;105143;1260;67566;-69
2023/02/08 02:39:44;;;;;;;27.70;15.70;;;;;;;-8.36;85.48;102495.45;105570;1262;73574;-70
2023/02/08 02:45:19;;;;;;;27.60;15.30;;;;;;;-8.40;85.72;102492.11;105508;1259;60507;-71
2023/02/08 02:48:11;;;;;;;25.10;14.20;;;;;;;-8.46;85.92;102495.83;105530;1263;74798;-69
2023/02/08 02:50:44;;;;;;;30.10;14.60;;;;;;;-8.53;86.05;102498.55;105659;1260;67459;-73
2023/02/08 02:53:18;;;;;;;37.90;19.20;;;;;;;-8.61;86.29;102503.89;105583;1263;73324;-68
2023/02/08 02:55:49;;;;;;;23.80;15.90;;;;;;;-8.62;86.37;102507.73;105183;1260;61216;-70
2023/02/08 02:58:19;;;;;;;25.80;15.90;;;;;;;-8.61;86.49;102508.58;105798;1257;60912;-70
2023/02/08 03:00:54;;;;;;;26.40;17.80;;;;;;;-8.60;86.47;102515.85;105732;1261;73987;-70
2023/02/08 03:03:24;;;;;;;24.10;15.40;;;;;;;-8.56;86.69;102515.54;105798;1257;67311;-71
2023/02/08 03:05:55;;;;;;;25.50;14.90;;;;;;;-8.54;86.49;102518.25;105668;1261;71146;-70
2023/02/08 03:08:49;;;;;;;21.80;15.10;;;;;;;-8.58;86.54;102521.34;105643;1262;60021;-69
2023/02/08 03:11:22;;;;;;;20.70;13.40;;;;;;;-8.61;86.54;102528.39;105786;1260;60514;-72
2023/02/08 03:14:13;;;;;;;26.50;14.40;;;;;;;-8.60;86.52;102532.02;105746;1262;72899;-71
2023/02/08 03:16:59;;;;;;;22.00;14.40;;;;;;;-8.57;86.58;102533.98;105818;1260;67319;-71
2023/02/08 03:19:54;;;;;;;23.80;15.20;;;;;;;-8.52;86.70;102538.13;105731;1257;72575;-71
2023/02/08 03:22:27;;;;;;;23.50;15.60;;;;;;;-8.44;86.66;102535.60;105613;1260;62629;-69
2023/02/08 03:25:24;;;;;;;21.70;12.70;;;;;;;-8.43;86.19;102532.75;105764;1260;59745;-72
2023/02/08 03:28:04;;;;;;;26.80;14.40;;;;;;;-8.51;86.09;102531.17;105432;1257;73233;-70
2023/02/08 03:30:44;;;;;;;25.40;14.60;;;;;;;-8.61;86.10;102536.05;105241;1260;68008;-71
2023/02/08 03:33:16;;;;;;;23.50;16.20;;;;;;;-8.66;86.20;102539.02;105831;1256;71771;-70
2023/02/08 03:35:52;;;;;;;24.10;14.70;;;;;;;-8.68;86.22;102544.86;105398;1262;60483;-68
2023/02/08 03:38:32;;;;;;;26.70;16.20;;;;;;;-8.75;86.21;102547.54;105638;1256;61282;-72
2023/02/08 03:41:02;;;;;;;29.00;17.40;;;;;;;-8.81;86.45;102547.25;104869;1262;1002997;-70
2023/02/08 03:43:55;;;;;;;23.80;14.90;;;;;;;-8.86;86.73;102549.84;105461;1260;69281;-73
2023/02/08 03:46:31;;;;;;;22.40;13.40;;;;;;;-8.88;86.90;102546.44;105699;1257;71188;-69
2023/02/08 03:49:05;;;;;;;29.70;16.20;;;;;;;-8.96;87.02;102549.54;105481;1262;61227;-71
2023/02/08 03:51:34;;;;;;;23.80;14.10;;;;;;;-9.07;87.29;102550.29;105861;1257;59663;-69
2023/02/08 03:54:05;;;;;;;25.30;15.60;;;;;;;-9.08;87.53;102550.84;105751;1262;72640;-70
2023/02/08 03:56:43;;;;;;;28.40;16.10;;;;;;;-9.11;87.63;102554.25;105831;1259;67390;-71
2023/02/08 03:59:15;;;;;;;28.90;17.20;;;;;;;-9.12;87.61;102562.94;105791;1257;74403;-72
2023/02/08 04:01:45;;;;;;;26.80;15.80;;;;;;;-9.17;87.81;102568.69;105251;1262;63110;-71
2023/02/08 04:04:14;;;;;;;27.80;16.70;;;;;;;-9.22;88.17;102578.45;105647;1262;60455;-70
2023/02/08 04:06:43;;;;;;;32.10;16.90;;;;;;;-9.32;88.34;102584.52;105213;1262;73155;-71
2023/02/08 04:09:11;;;;;;;25.60;15.80;;;;;;;-9.36;88.50;102584.98;105512;1257;67470;-72
2023/02/08 04:11:39;;;;;;;28.80;16.50;;;;;;;-9.39;88.79;102583.52;105752;1261;72132;-69
2023/02/08 04:14:07;;;;;;;27.30;16.20;;;;;;;-9.43;88.90;102587.81;105844;1257;62093;-72
2023/02/08 04:16:35;;;;;;;26.60;18.20;;;;;;;-9.45;89.12;102589.49;105752;1257;60378;-69
2023/02/08 04:19:04;;;;;;;29.80;17.90;;;;;;;-9.43;89.43;102592.54;105772;1262;73905;-68
2023/02/08 04:21:33;;;;;;;29.10;18.40;;;;;;;-9.38;89.56;102596.52;105066;1262;69562;-74
2023/02/08 04:24:02;;;;;;;37.00;21.60;;;;;;;-9.37;89.37;102604.46;105541;1258;74910;-73
2023/02/08 04:26:31;;;;;;;26.80;17.00;;;;;;;-9.36;89.45;102609.83;105505;1259;62136;-68
2023/02/08 04:28:59;;;;;;;20.60;14.40;;;;;;;-9.35;89.76;102611.02;105901;1257;60714;-71
2023/02/08 04:31:27;;;;;;;28.50;17.70;;;;;;;-9.46;89.66;102615.73;105443;1257;72595;-70
2023/02/08 04:33:56;;;;;;;36.80;21.00;;;;;;;-9.47;89.91;102613.99;105883;1257;67421;-70
2023/02/08 04:36:25;;;;;;;32.00;17.40;;;;;;;-9.44;90.12;102619.30;105852;1261;71401;-69
2023/02/08 04:38:53;;;;;;;35.70;19.00;;;;;;;-9.45;89.87;102618.31;105346;1257;61400;-69
2023/02/08 04:41:21;;;;;;;35.10;19.10;;;;;;;-9.45;90.01;102620.36;105504;1260;61289;-67
2023/02/08 04:43:50;;;;;;;30.50;17.80;;;;;;;-9.50;90.11;102626.98;105483;1262;74660;-69
2023/02/08 04:46:18;;;;;;;37.70;23.00;;;;;;;-9.54;90.18;102627.97;105256;1263;68749;-71
2023/02/08 04:48:46;;;;;;;34.30;18.00;;;;;;;-9.55;90.56;102634.95;105782;1262;72038;-70
2023/02/08 04:51:14;;;;;;;34.20;17.90;;;;;;;-9.53;90.57;102630.70;105836;1257;63858;-72
2023/02/08 04:53:42;;;;;;;30.90;16.80;;;;;;;-9.46;90.55;102633.08;105355;1257;60766;-71
2023/02/08 04:56:11;;;;;;;30.40;16.80;;;;;;;-9.50;90.58;102630.77;105121;1262;1003361;-70
2023/02/08 04:58:39;;;;;;;26.50;17.20;;;;;;;-9.61;90.59;102631.30;104680;1260;1014729;-67
2023/02/08 05:01:09;;;;;;;30.00;17.00;;;;;;;-9.63;90.77;102634.15;105327;1260;72025;-68
2023/02/08 05:03:38;;;;;;;14.50;7.40;;;;;;;-9.67;91.01;102640.17;105465;1256;60664;-71
2023/02/08 05:06:06;;;;;;;32.80;16.40;;;;;;;-9.77;91.14;102643.45;105630;1257;61890;-67
2023/02/08 05:08:35;;;;;;;20.90;11.30;;;;;;;-9.84;91.25;102644.36;105432;1257;71961;-71
2023/02/08 05:11:03;;;;;;;27.80;14.60;;;;;;;-9.90;91.34;102648.19;105304;1257;68918;-68
2023/02/08 05:13:31;;;;;;;42.00;21.60;;;;;;;-9.98;91.59;102651.57;105525;1262;73485;-69
2023/02/08 05:16:00;;;;;;;47.80;25.70;;;;;;;-10.02;91.99;102650.67;104358;1258;1002497;-71
2023/02/08 05:18:30;;;;;;;46.30;25.80;;;;;;;-10.03;91.92;102660.94;105635;1262;61957;-71
2023/02/08 05:20:59;;;;;;;54.00;33.10;;;;;;;-10.05;92.07;102662.18;105751;1262;72280;-73
2023/02/08 05:23:28;;;;;;;56.00;36.10;;;;;;;-10.02;92.21;102669.38;105791;1257;67372;-70
2023/02/08 05:25:56;;;;;;;58.40;33.80;;;;;;;-9.96;92.64;102667.47;105774;1257;72352;-69
2023/02/08 05:28:24;;;;;;;37.20;23.00;;;;;;;-9.92;92.48;102672.03;105379;1258;61741;-69
2023/02/08 05:30:53;;;;;;;45.20;21.00;;;;;;;-9.95;92.18;102676.82;105226;1263;60561;-66
2023/02/08 05:33:21;;;;;;;27.20;13.80;;;;;;;-9.96;92.43;102675.98;105582;1261;74104;-67
2023/02/08 05:35:49;;;;;;;37.40;24.60;;;;;;;-10.03;92.29;102681.22;105099;1257;67665;-70
2023/02/08 05:38:17;;;;;;;25.40;19.60;;;;;;;-10.05;92.09;102679.89;105408;1260;72271;-71
2023/02/08 05:40:45;;;;;;;30.90;19.50;;;;;;;-10.06;92.07;102681.99;105577;1260;62197;-72
2023/02/08 05:43:14;;;;;;;32.00;19.40;;;;;;;-10.03;92.18;102683.30;105673;1262;59958;-73
2023/02/08 05:45:42;;;;;;;42.20;24.70;;;;;;;-9.99;92.60;102682.32;105746;1262;73605;-70
2023/02/08 05:48:10;;;;;;;35.40;22.80;;;;;;;-9.94;92.51;102683.89;105650;1260;68855;-72
2023/02/08 05:50:38;;;;;;;29.70;19.80;;;;;;;-9.88;92.46;102686.83;104330;1261;1003654;-72
2023/02/08 05:53:09;;;;;;;35.70;19.00;;;;;;;-9.86;92.24;102687.65;105251;1263;62644;-74
2023/02/08 05:55:37;;;;;;;41.80;20.40;;;;;;;-9.84;92.34;102692.64;105755;1258;61844;-68
2023/02/08 08:06:23;;;;;;;48.90;27.40;;;;;;;-8.05;91.77;102742.56;102656;1292;601160;-70
2023/02/08 08:08:52;;;;;;;57.40;28.20;;;;;;;-7.97;91.54;102742.96;104776;1269;61521;-68
2023/02/08 08:11:21;;;;;;;77.00;37.80;;;;;;;-7.84;91.30;102746.84;103795;1270;1003602;-70
2023/02/08 08:13:49;;;;;;;63.90;36.30;;;;;;;-7.71;91.02;102742.34;104185;1271;1003686;-70
2023/02/08 08:16:17;;;;;;;53.10;32.50;;;;;;;-7.55;90.87;102748.70;104771;1264;68897;-71
2023/02/08 08:18:48;;;;;;;61.50;30.00;;;;;;;-7.37;90.61;102745.55;104503;1263;587672;-67
2023/02/08 08:21:16;;;;;;;44.50;26.50;;;;;;;-7.17;90.15;102747.92;105430;1257;62053;-67
2023/02/08 08:23:44;;;;;;;43.80;25.10;;;;;;;-7.00;89.17;102747.02;105497;1257;61348;-66
2023/02/08 08:26:15;;;;;;;38.40;20.80;;;;;;;-6.84;88.56;102753.53;105489;1259;72582;-71
2023/02/08 08:28:43;;;;;;;35.50;20.40;;;;;;;-6.66;88.19;102752.42;105720;1257;69061;-69
2023/02/08 08:31:19;;;;;;;39.50;19.80;;;;;;;-6.46;87.72;102752.96;105660;1261;73295;-68
2023/02/08 08:33:48;;;;;;;34.20;21.20;;;;;;;-6.31;86.04;102759.80;105886;1257;62069;-70
2023/02/08 08:36:16;;;;;;;36.70;24.30;;;;;;;-6.17;86.10;102759.38;105872;1259;59685;-69
2023/02/08 08:38:44;;;;;;;30.00;18.80;;;;;;;-5.98;85.61;102764.65;105309;1259;72945;-71
2023/02/08 08:41:14;;;;;;;35.50;18.50;;;;;;;-5.84;84.55;102766.44;105903;1260;69698;-73
2023/02/08 08:43:42;;;;;;;41.10;20.20;;;;;;;-5.67;84.06;102768.45;105818;1257;73575;-71
2023/02/08 08:46:11;;;;;;;30.80;18.60;;;;;;;-5.52;83.03;102769.31;105791;1256;61355;-75
2023/02/08 08:48:39;;;;;;;31.00;16.90;;;;;;;-5.35;82.84;102773.23;105818;1259;60569;-71
2023/02/08 08:51:07;;;;;;;33.10;16.40;;;;;;;-5.20;81.44;102774.99;105815;1260;72477;-72
2023/02/08 08:53:36;;;;;;;25.80;15.50;;;;;;;-5.08;80.61;102773.02;105855;1257;68553;-69
2023/02/08 08:56:05;;;;;;;26.30;16.60;;;;;;;-5.00;79.36;102777.52;105880;1260;74046;-74
2023/02/08 08:58:33;;;;;;;26.60;16.30;;;;;;;-4.96;78.04;102775.39;105846;1255;60559;-72
2023/02/08 09:01:01;;;;;;;53.60;30.40;;;;;;;-4.89;78.18;102775.94;109172;1256;61761;-71
2023/02/08 09:03:30;;;;;;;62.60;36.00;;;;;;;-4.74;78.43;102774.70;109267;1256;71093;-71
2023/02/08 09:05:58;;;;;;;36.30;20.10;;;;;;;-4.58;77.72;102770.16;109224;1255;65616;-69
2023/02/08 09:08:26;;;;;;;36.50;21.10;;;;;;;-4.42;77.44;102763.40;109267;1255;71570;-68
2023/02/08 09:10:55;;;;;;;37.70;20.10;;;;;;;-4.32;76.00;102764.45;109250;1255;57677;-73
2023/02/08 09:13:24;;;;;;;25.70;15.50;;;;;;;-4.27;75.17;102762.67;109197;1255;58544;-71
2023/02/08 09:15:52;;;;;;;26.60;17.60;;;;;;;-4.29;74.02;102766.59;109321;1256;71895;-67
2023/02/08 09:18:20;;;;;;;31.10;18.20;;;;;;;-4.32;73.54;102764.32;109282;1256;65519;-67
2023/02/08 09:20:48;;;;;;;28.30;17.20;;;;;;;-4.33;73.53;102764.54;109273;1257;71838;-65
2023/02/08 09:23:16;;;;;;;28.00;18.40;;;;;;;-4.35;72.99;102755.33;109067;1256;59234;-68
2023/02/08 09:25:58;;;;;;;30.60;17.50;;;;;;;-4.38;72.27;102753.04;109202;1257;58712;-70
2023/02/08 09:28:26;;;;;;;23.60;16.20;;;;;;;-4.42;72.48;102750.45;109120;1256;72410;-72
2023/02/08 09:30:54;;;;;;;34.50;20.80;;;;;;;-4.46;71.94;102752.36;109155;1257;68844;-69
2023/02/08 09:33:23;;;;;;;32.70;19.30;;;;;;;-4.47;71.84;102749.33;109232;1256;71577;-73
2023/02/08 09:35:51;;;;;;;36.10;21.70;;;;;;;-4.43;72.55;102752.91;108455;1257;1002375;-70
2023/02/08 09:38:19;;;;;;;31.40;19.20;;;;;;;-4.38;72.57;102754.64;109134;1257;59564;-70
2023/02/08 09:41:15;;;;;;;29.00;18.60;;;;;;;-4.34;72.69;102754.62;109146;1257;71613;-71
2023/02/08 09:43:52;;;;;;;31.50;19.30;;;;;;;-4.29;72.71;102752.39;109232;1260;68732;-71
2023/02/08 09:46:21;;;;;;;30.40;20.60;;;;;;;-4.18;72.88;102744.48;109108;1261;70273;-70
2023/02/08 09:48:52;;;;;;;24.00;17.70;;;;;;;-4.10;72.62;102735.48;109209;1260;59800;-77
2023/02/08 09:51:27;;;;;;;31.30;19.00;;;;;;;-4.03;71.81;102735.10;109130;1257;60023;-70
2023/02/08 09:53:58;;;;;;;33.80;19.90;;;;;;;-3.97;71.77;102734.59;109108;1256;70813;-73
2023/02/08 09:56:31;;;;;;;32.90;19.20;;;;;;;-3.89;71.73;102730.84;109270;1256;67011;-72
2023/02/08 09:58:59;;;;;;;27.80;16.60;;;;;;;-3.79;71.61;102730.80;109210;1257;73158;-67
2023/02/08 10:01:32;;;;;;;31.30;18.20;;;;;;;-3.73;71.06;102728.71;109100;1257;58249;-71
2023/02/08 10:04:19;;;;;;;33.40;21.30;;;;;;;-3.69;70.96;102727.61;109167;1256;61267;-75
2023/02/08 10:06:47;;;;;;;31.90;19.90;;;;;;;-3.61;70.81;102724.23;109183;1257;70989;-69
2023/02/08 10:09:18;;;;;;;34.20;20.10;;;;;;;-3.53;70.93;102714.65;109206;1257;67295;-71
2023/02/08 10:11:49;;;;;;;24.80;15.90;;;;;;;-3.46;69.98;102716.73;109112;1257;71826;-70
2023/02/08 10:14:29;;;;;;;33.70;18.60;;;;;;;-3.44;69.55;102715.20;108374;1257;1002088;-68
2023/02/08 10:17:31;;;;;;;23.00;16.60;;;;;;;-3.42;69.01;102715.44;109109;1257;59984;-70
2023/02/08 10:20:16;;;;;;;20.80;14.10;;;;;;;-3.35;69.61;102717.34;109196;1256;71910;-71
2023/02/08 10:23:01;;;;;;;22.80;17.40;;;;;;;-3.22;69.56;102720.45;109079;1257;68200;-71
2023/02/08 10:25:43;;;;;;;24.60;16.10;;;;;;;-3.10;69.24;102724.14;109135;1257;71203;-71
2023/02/08 10:28:33;;;;;;;24.70;16.10;;;;;;;-2.99;68.91;102725.11;109132;1257;58105;-70
2023/02/08 10:31:34;;;;;;;20.30;13.00;;;;;;;-2.90;68.68;102717.75;109112;1257;61151;-70
2023/02/08 10:34:03;;;;;;;15.50;12.40;;;;;;;-2.80;67.94;102719.77;109151;1260;72197;-68
2023/02/08 10:36:40;;;;;;;18.50;13.40;;;;;;;-2.73;67.29;102717.27;109137;1257;66176;-68
2023/02/08 10:39:36;;;;;;;19.90;12.60;;;;;;;-2.65;67.27;102722.04;108308;1257;1003007;-71
2023/02/08 10:42:09;;;;;;;19.90;14.50;;;;;;;-2.58;66.81;102720.58;109176;1257;58303;-70
2023/02/08 10:45:30;;;;;;;23.30;15.10;;;;;;;-2.49;67.06;102725.83;109043;1257;60225;-69
2023/02/08 10:48:01;;;;;;;17.50;11.10;;;;;;;-2.36;66.47;102721.55;108708;1266;71776;-68
2023/02/08 10:50:35;;;;;;;17.90;10.40;;;;;;;-2.38;64.89;102718.34;108620;1264;66434;-68
2023/02/08 10:53:03;;;;;;;17.20;10.40;;;;;;;-2.39;64.99;102721.33;108931;1257;72761;-68
2023/02/08 10:55:33;;;;;;;17.70;12.80;;;;;;;-2.42;64.91;102718.89;109091;1257;59932;-73
2023/02/08 10:58:12;;;;;;;18.30;11.70;;;;;;;-2.39;65.15;102717.84;109207;1257;60925;-70
2023/02/08 11:00:40;;;;;;;17.30;11.70;;;;;;;-2.31;64.93;102725.10;109080;1260;74216;-71
2023/02/08 11:03:22;;;;;;;17.90;12.40;;;;;;;-2.25;64.66;102721.73;109073;1257;68885;-69
2023/02/08 11:05:52;;;;;;;20.60;12.30;;;;;;;-2.24;64.47;102719.52;109079;1257;71304;-71
2023/02/08 11:08:25;;;;;;;18.60;12.80;;;;;;;-2.21;64.68;102723.75;109108;1257;61284;-68
2023/02/08 11:10:55;;;;;;;26.40;12.80;;;;;;;-2.15;64.40;102724.88;109128;1257;58904;-68
2023/02/08 11:13:32;;;;;;;21.10;12.90;;;;;;;-2.07;65.17;102720.50;109161;1257;72007;-70
2023/02/08 11:16:05;;;;;;;22.70;15.50;;;;;;;-1.96;65.09;102722.77;109113;1257;68807;-65
2023/02/08 11:18:35;;;;;;;26.20;15.30;;;;;;;-1.93;65.08;102722.61;109104;1257;73788;-65
2023/02/08 11:21:09;;;;;;;19.20;12.10;;;;;;;-1.90;65.24;102724.00;109064;1257;60532;-66
2023/02/08 11:23:41;;;;;;;22.30;12.40;;;;;;;-1.83;64.15;102728.83;109139;1257;60459;-69
2023/02/08 11:26:20;;;;;;;18.80;12.00;;;;;;;-1.79;64.08;102729.23;109073;1262;71819;-75
2023/02/08 11:29:03;;;;;;;16.80;11.20;;;;;;;-1.77;63.18;102727.88;109019;1257;66805;-68
2023/02/08 11:31:33;;;;;;;23.90;15.20;;;;;;;-1.68;63.57;102726.99;109116;1257;72690;-70
2023/02/08 11:34:08;;;;;;;19.50;13.00;;;;;;;-1.55;63.43;102728.81;109070;1257;57790;-69
2023/02/08 11:36:41;;;;;;;19.90;14.00;;;;;;;-1.45;62.74;102725.01;109105;1257;60966;-71
2023/02/08 11:39:25;;;;;;;21.40;13.80;;;;;;;-1.40;62.21;102729.81;109149;1257;72599;-69
2023/02/08 11:41:55;;;;;;;18.40;12.70;;;;;;;-1.40;62.28;102728.39;109145;1257;68095;-76
2023/02/08 11:44:29;;;;;;;15.00;10.60;;;;;;;-1.38;61.26;102729.28;108322;1257;1002491;-66
2023/02/08 11:46:59;;;;;;;19.50;12.40;;;;;;;-1.36;61.33;102732.89;109070;1257;60679;-71
2023/02/08 11:49:37;;;;;;;15.00;10.10;;;;;;;-1.35;61.50;102729.27;109114;1257;61176;-68
2023/02/08 11:52:08;;;;;;;16.50;11.00;;;;;;;-1.29;61.06;102728.21;109097;1262;74165;-76
2023/02/08 11:54:40;;;;;;;18.30;11.10;;;;;;;-1.28;61.14;102724.79;109089;1257;67254;-78
2023/02/08 11:57:21;;;;;;;25.10;13.40;;;;;;;-1.24;61.55;102726.48;109146;1257;71422;-74
2023/02/08 11:59:51;;;;;;;19.20;11.20;;;;;;;-1.16;61.39;102723.69;109011;1259;58225;-69
2023/02/08 12:02:35;;;;;;;16.60;11.10;;;;;;;-1.13;60.72;102719.58;109057;1258;59375;-76
2023/02/08 12:05:08;;;;;;;17.60;11.70;;;;;;;-1.07;60.61;102718.50;108937;1260;71940;-71
2023/02/08 12:07:46;;;;;;;26.60;12.70;;;;;;;-1.03;60.42;102719.27;108972;1259;65822;-69
2023/02/08 12:10:36;;;;;;;21.10;14.40;;;;;;;-1.06;60.62;102715.20;109022;1258;73077;-70
2023/02/08 12:13:40;;;;;;;19.40;13.60;;;;;;;-1.04;61.13;102715.12;108945;1264;60376;-68
2023/02/08 12:16:14;;;;;;;23.20;12.10;;;;;;;-1.01;60.67;102713.84;109031;1260;58484;-73
2023/02/08 12:19:03;;;;;;;16.40;12.60;;;;;;;-1.00;60.38;102707.41;109071;1260;73809;-75
2023/02/08 12:21:35;;;;;;;17.60;11.70;;;;;;;-0.94;60.27;102709.70;109074;1260;68231;-76
2023/02/08 12:24:19;;;;;;;18.20;12.70;;;;;;;-0.91;60.34;102711.20;108983;1260;72926;-74
2023/02/08 12:26:57;;;;;;;22.30;13.10;;;;;;;-0.86;60.28;102715.02;108974;1260;60809;-71
2023/02/08 12:29:46;;;;;;;19.10;11.90;;;;;;;-0.83;59.85;102718.09;108986;1260;61551;-73
2023/02/08 12:32:27;;;;;;;18.00;12.00;;;;;;;-0.81;59.65;102721.67;109021;1262;72913;-74
2023/02/08 12:35:19;;;;;;;18.50;13.00;;;;;;;-0.84;59.49;102721.37;109065;1258;68876;-70
2023/02/08 12:41:06;;;;;;;24.90;15.20;;;;;;;-0.88;59.67;102718.96;109022;1259;60609;-75
2023/02/08 12:43:46;;;;;;;20.80;13.10;;;;;;;-0.92;59.61;102713.60;109009;1260;60368;-67
2023/02/08 12:46:21;;;;;;;21.00;15.30;;;;;;;-0.91;60.00;102714.93;109041;1260;71614;-67
2023/02/08 12:48:52;;;;;;;18.20;12.20;;;;;;;-0.84;60.01;102719.98;109042;1260;68468;-75
2023/02/08 12:51:44;;;;;;;16.20;11.70;;;;;;;-0.82;60.14;102719.15;108982;1260;72841;-76
2023/02/08 12:54:32;;;;;;;20.90;9.40;;;;;;;-0.82;60.00;102717.90;108898;1260;58228;-76
2023/02/08 12:57:00;;;;;;;22.30;12.60;;;;;;;-0.92;59.99;102713.56;109007;1260;61145;-71
2023/02/08 12:59:30;;;;;;;20.10;12.00;;;;;;;-0.85;60.53;102713.51;109042;1260;72488;-71
2023/02/08 13:02:02;;;;;;;18.50;11.60;;;;;;;-0.80;60.01;102713.67;109035;1260;67649;-73
2023/02/08 13:04:37;;;;;;;18.90;12.90;;;;;;;-0.79;59.73;102711.70;109035;1260;73822;-68
2023/02/08 13:07:17;;;;;;;18.90;11.80;;;;;;;-0.82;59.72;102710.65;108995;1261;58215;-69
2023/02/08 13:09:50;;;;;;;18.60;13.30;;;;;;;-0.76;59.79;102704.45;109040;1259;59327;-72
2023/02/08 13:12:26;;;;;;;16.60;11.30;;;;;;;-0.74;59.64;102706.91;108969;1259;73894;-70
2023/02/08 13:15:07;;;;;;;17.30;11.50;;;;;;;-0.71;59.74;102704.97;108160;1260;1003011;-68
2023/02/08 13:17:45;;;;;;;20.20;12.70;;;;;;;-0.74;59.57;102707.98;108946;1260;73665;-70
2023/02/08 13:20:37;;;;;;;17.60;11.60;;;;;;;-0.77;59.82;102702.02;108944;1259;58062;-73
2023/02/08 13:23:31;;;;;;;17.00;12.50;;;;;;;-0.78;60.10;102698.41;108826;1260;58362;-75
2023/02/08 13:26:30;;;;;;;15.80;12.60;;;;;;;-0.74;59.81;102694.63;108989;1259;74095;-70
2023/02/08 13:29:01;;;;;;;20.10;12.20;;;;;;;-0.75;59.60;102694.66;109019;1259;65997;-73
2023/02/08 13:31:36;;;;;;;18.00;13.20;;;;;;;-0.72;59.97;102694.83;109002;1259;70423;-72
2023/02/08 13:34:07;;;;;;;26.70;16.20;;;;;;;-0.76;59.62;102691.89;109024;1258;58938;-73
2023/02/08 13:36:38;;;;;;;22.50;15.30;;;;;;;-0.77;59.89;102688.42;109053;1259;60145;-75
2023/02/08 13:39:08;;;;;;;21.10;14.30;;;;;;;-0.76;60.09;102683.84;108931;1259;72369;-71
2023/02/08 13:41:39;;;;;;;19.30;11.80;;;;;;;-0.84;60.20;102680.69;109008;1260;67217;-73
2023/02/08 13:44:16;;;;;;;20.70;14.80;;;;;;;-0.94;60.31;102678.88;108967;1258;72172;-70